sensor_id;sensor_type;location;lat;lon;timestamp;pressure;altitude;pressure_sealevel;temperature;humidity
37066;BME280;22981;43.080;25.550;2022-11-15T00:01:09;100378.75;;;8.32;88.91
37066;BME280;22981;43.080;25.550;2022-11-15T00:03:38;100375.92;;;8.29;89.10
37066;BME280;22981;43.080;25.550;2022-11-15T00:06:06;100369.57;;;8.30;89.14
37066;BME280;22981;43.080;25.550;2022-11-15T00:08:33;100364.07;;;8.32;89.18
37066;BME280;22981;43.080;25.550;2022-11-15T00:11:02;100358.54;;;8.33;89.15
37066;BME280;22981;43.080;25.550;2022-11-15T00:13:30;100361.88;;;8.35;89.11
37066;BME280;22981;43.080;25.550;2022-11-15T00:15:59;100364.69;;;8.38;89.11
37066;BME280;22981;43.080;25.550;2022-11-15T00:18:27;100315.95;;;8.10;88.99
37066;BME280;22981;43.080;25.550;2022-11-15T00:20:56;100368.34;;;8.41;88.97
37066;BME280;22981;43.080;25.550;2022-11-15T00:23:23;100361.16;;;8.41;88.90
37066;BME280;22981;43.080;25.550;2022-11-15T00:25:58;100357.16;;;8.41;88.90
37066;BME280;22981;43.080;25.550;2022-11-15T00:28:26;100311.24;;;8.12;88.85
37066;BME280;22981;43.080;25.550;2022-11-15T00:30:53;100355.31;;;8.42;88.83
37066;BME280;22981;43.080;25.550;2022-11-15T00:33:21;100352.64;;;8.42;88.80
37066;BME280;22981;43.080;25.550;2022-11-15T00:35:49;100354.30;;;8.43;88.75
37066;BME280;22981;43.080;25.550;2022-11-15T00:38:16;100352.45;;;8.43;88.72
37066;BME280;22981;43.080;25.550;2022-11-15T00:40:44;100348.59;;;8.46;88.72
37066;BME280;22981;43.080;25.550;2022-11-15T00:43:11;100352.09;;;8.46;88.65
37066;BME280;22981;43.080;25.550;2022-11-15T00:45:39;100352.09;;;8.46;88.66
37066;BME280;22981;43.080;25.550;2022-11-15T00:48:07;100345.73;;;8.47;88.61
37066;BME280;22981;43.080;25.550;2022-11-15T00:50:34;100342.75;;;8.46;88.58
37066;BME280;22981;43.080;25.550;2022-11-15T00:53:02;100343.57;;;8.47;88.52
37066;BME280;22981;43.080;25.550;2022-11-15T00:55:29;100345.25;;;8.48;88.50
37066;BME280;22981;43.080;25.550;2022-11-15T00:57:57;100342.23;;;8.47;88.49
37066;BME280;22981;43.080;25.550;2022-11-15T01:00:24;100339.25;;;8.46;88.46
37066;BME280;22981;43.080;25.550;2022-11-15T01:02:52;100341.61;;;8.45;88.44
37066;BME280;22981;43.080;25.550;2022-11-15T01:05:20;100336.08;;;8.46;88.42
37066;BME280;22981;43.080;25.550;2022-11-15T01:07:51;100336.08;;;8.46;88.37
37066;BME280;22981;43.080;25.550;2022-11-15T01:10:16;100333.72;;;8.47;88.35
37066;BME280;22981;43.080;25.550;2022-11-15T01:12:44;100329.72;;;8.47;88.31
37066;BME280;22981;43.080;25.550;2022-11-15T01:15:12;100332.08;;;8.46;88.29
37066;BME280;22981;43.080;25.550;2022-11-15T01:17:39;100328.90;;;8.47;88.29
37066;BME280;22981;43.080;25.550;2022-11-15T01:20:08;100330.23;;;8.47;88.23
37066;BME280;22981;43.080;25.550;2022-11-15T01:22:36;100325.41;;;8.46;88.25
37066;BME280;22981;43.080;25.550;2022-11-15T01:25:03;100316.26;;;8.45;88.24
37066;BME280;22981;43.080;25.550;2022-11-15T01:27:31;100314.92;;;8.45;88.25
37066;BME280;22981;43.080;25.550;2022-11-15T01:29:58;100317.09;;;8.45;88.26
37066;BME280;22981;43.080;25.550;2022-11-15T01:32:26;100318.73;;;8.46;88.22
37066;BME280;22981;43.080;25.550;2022-11-15T01:34:54;100318.27;;;8.43;88.28
37066;BME280;22981;43.080;25.550;2022-11-15T01:37:21;100321.77;;;8.43;88.34
37066;BME280;22981;43.080;25.550;2022-11-15T01:39:49;100324.94;;;8.43;88.39
37066;BME280;22981;43.080;25.550;2022-11-15T01:42:16;100324.94;;;8.43;88.46
37066;BME280;22981;43.080;25.550;2022-11-15T01:44:51;100316.81;;;8.40;88.44
37066;BME280;22981;43.080;25.550;2022-11-15T01:47:33;100312.81;;;8.40;88.51
37066;BME280;22981;43.080;25.550;2022-11-15T01:50:05;100317.76;;;8.43;88.53
37066;BME280;22981;43.080;25.550;2022-11-15T01:52:30;100319.75;;;8.45;88.49
37066;BME280;22981;43.080;25.550;2022-11-15T01:55:20;100313.91;;;8.46;88.43
37066;BME280;22981;43.080;25.550;2022-11-15T01:57:46;100314.10;;;8.44;88.42
37066;BME280;22981;43.080;25.550;2022-11-15T02:00:15;100309.44;;;8.42;88.40
37066;BME280;22981;43.080;25.550;2022-11-15T02:02:43;100311.33;;;8.38;88.45
37066;BME280;22981;43.080;25.550;2022-11-15T02:05:11;100311.84;;;8.37;88.67
37066;BME280;22981;43.080;25.550;2022-11-15T02:07:38;100315.99;;;8.40;88.76
37066;BME280;22981;43.080;25.550;2022-11-15T02:10:17;100309.95;;;8.42;88.75
37066;BME280;22981;43.080;25.550;2022-11-15T02:12:43;100314.92;;;8.45;88.69
37066;BME280;22981;43.080;25.550;2022-11-15T02:15:11;100314.22;;;8.47;88.63
37066;BME280;22981;43.080;25.550;2022-11-15T02:23:21;100305.39;;;8.46;88.51
37066;BME280;22981;43.080;25.550;2022-11-15T02:26:08;100301.58;;;8.45;88.40
37066;BME280;22981;43.080;25.550;2022-11-15T02:29:03;100299.28;;;8.42;88.40
37066;BME280;22981;43.080;25.550;2022-11-15T02:31:55;100296.09;;;8.42;88.40
37066;BME280;22981;43.080;25.550;2022-11-15T02:34:46;100300.92;;;8.43;88.32
37066;BME280;22981;43.080;25.550;2022-11-15T02:39:49;100292.61;;;8.42;88.22
37066;BME280;22981;43.080;25.550;2022-11-15T02:42:18;100270.55;;;8.29;88.25
37066;BME280;22981;43.080;25.550;2022-11-15T02:45:06;100292.80;;;8.40;88.28
37066;BME280;22981;43.080;25.550;2022-11-15T02:47:37;100288.97;;;8.39;88.37
37066;BME280;22981;43.080;25.550;2022-11-15T02:50:10;100280.14;;;8.38;88.48
37066;BME280;22981;43.080;25.550;2022-11-15T02:52:38;100270.13;;;8.40;88.54
37066;BME280;22981;43.080;25.550;2022-11-15T02:55:24;100276.08;;;8.42;88.49
37066;BME280;22981;43.080;25.550;2022-11-15T02:57:51;100273.73;;;8.43;88.50
37066;BME280;22981;43.080;25.550;2022-11-15T03:00:20;100275.92;;;8.44;88.50
37066;BME280;22981;43.080;25.550;2022-11-15T03:03:04;100273.56;;;8.45;88.45
37066;BME280;22981;43.080;25.550;2022-11-15T03:05:37;100282.39;;;8.45;88.44
37066;BME280;22981;43.080;25.550;2022-11-15T03:08:10;100273.56;;;8.45;88.40
37066;BME280;22981;43.080;25.550;2022-11-15T03:13:56;100275.06;;;8.43;88.45
37066;BME280;22981;43.080;25.550;2022-11-15T03:16:44;100273.41;;;8.42;88.49
37066;BME280;22981;43.080;25.550;2022-11-15T03:19:17;100273.11;;;8.41;88.44
37066;BME280;22981;43.080;25.550;2022-11-15T03:21:41;100265.46;;;8.38;88.45
37066;BME280;22981;43.080;25.550;2022-11-15T03:24:11;100267.98;;;8.36;88.62
37066;BME280;22981;43.080;25.550;2022-11-15T03:26:41;100270.65;;;8.36;88.75
37066;BME280;22981;43.080;25.550;2022-11-15T03:29:17;100270.48;;;8.37;88.79
37066;BME280;22981;43.080;25.550;2022-11-15T03:31:44;100268.45;;;8.39;88.73
37066;BME280;22981;43.080;25.550;2022-11-15T03:34:15;100270.75;;;8.42;88.63
37066;BME280;22981;43.080;25.550;2022-11-15T03:36:42;100266.23;;;8.43;88.50
37066;BME280;22981;43.080;25.550;2022-11-15T03:39:12;100265.61;;;8.41;88.48
37066;BME280;22981;43.080;25.550;2022-11-15T03:44:31;100256.90;;;8.43;88.43
37066;BME280;22981;43.080;25.550;2022-11-15T03:49:32;100255.91;;;8.44;88.36
37066;BME280;22981;43.080;25.550;2022-11-15T03:52:03;100261.05;;;8.45;88.32
37066;BME280;22981;43.080;25.550;2022-11-15T03:54:31;100253.55;;;8.45;88.26
37066;BME280;22981;43.080;25.550;2022-11-15T03:56:59;100251.20;;;8.46;88.23
37066;BME280;22981;43.080;25.550;2022-11-15T03:59:26;100247.51;;;8.47;88.19
37066;BME280;22981;43.080;25.550;2022-11-15T04:01:54;100242.00;;;8.48;88.12
37066;BME280;22981;43.080;25.550;2022-11-15T04:04:21;100249.19;;;8.48;88.12
37066;BME280;22981;43.080;25.550;2022-11-15T04:06:49;100238.98;;;8.47;88.10
37066;BME280;22981;43.080;25.550;2022-11-15T04:09:16;100241.18;;;8.48;88.06
37066;BME280;22981;43.080;25.550;2022-11-15T04:11:44;100239.65;;;8.49;88.05
37066;BME280;22981;43.080;25.550;2022-11-15T04:14:11;100242.31;;;8.49;88.02
37066;BME280;22981;43.080;25.550;2022-11-15T04:16:39;100238.00;;;8.48;88.01
37066;BME280;22981;43.080;25.550;2022-11-15T04:19:06;100239.96;;;8.50;88.03
37066;BME280;22981;43.080;25.550;2022-11-15T04:21:52;100241.61;;;8.51;88.01
37066;BME280;22981;43.080;25.550;2022-11-15T04:24:37;100232.78;;;8.51;87.95
37066;BME280;22981;43.080;25.550;2022-11-15T04:27:05;100242.31;;;8.49;87.88
37066;BME280;22981;43.080;25.550;2022-11-15T04:29:33;100239.13;;;8.50;87.90
37066;BME280;22981;43.080;25.550;2022-11-15T04:32:04;100242.00;;;8.48;87.88
37066;BME280;22981;43.080;25.550;2022-11-15T04:34:32;100233.48;;;8.49;87.87
37066;BME280;22981;43.080;25.550;2022-11-15T04:37:00;100232.97;;;8.49;87.79
37066;BME280;22981;43.080;25.550;2022-11-15T04:39:41;100231.19;;;8.46;87.64
37066;BME280;22981;43.080;25.550;2022-11-15T04:42:10;100227.03;;;8.43;87.57
37066;BME280;22981;43.080;25.550;2022-11-15T04:44:37;100227.89;;;8.44;87.50
37066;BME280;22981;43.080;25.550;2022-11-15T04:47:05;100231.38;;;8.44;87.28
37066;BME280;22981;43.080;25.550;2022-11-15T04:49:33;100230.73;;;8.42;87.14
37066;BME280;22981;43.080;25.550;2022-11-15T04:52:00;100229.39;;;8.42;87.17
37066;BME280;22981;43.080;25.550;2022-11-15T04:54:28;100226.55;;;8.44;87.19
37066;BME280;22981;43.080;25.550;2022-11-15T04:56:55;100223.69;;;8.45;87.10
37066;BME280;22981;43.080;25.550;2022-11-15T04:59:23;100222.36;;;8.45;87.07
37066;BME280;22981;43.080;25.550;2022-11-15T05:01:51;100223.17;;;8.46;87.01
37066;BME280;22981;43.080;25.550;2022-11-15T05:04:18;100229.02;;;8.45;86.96
37066;BME280;22981;43.080;25.550;2022-11-15T05:06:50;100226.05;;;8.44;86.88
37066;BME280;22981;43.080;25.550;2022-11-15T05:09:18;100223.37;;;8.44;86.88
37066;BME280;22981;43.080;25.550;2022-11-15T05:11:47;100224.71;;;8.44;86.89
37066;BME280;22981;43.080;25.550;2022-11-15T05:14:15;100228.72;;;8.44;86.85
37066;BME280;22981;43.080;25.550;2022-11-15T05:16:43;100230.87;;;8.45;86.85
37066;BME280;22981;43.080;25.550;2022-11-15T05:19:11;100230.05;;;8.44;86.90
37066;BME280;22981;43.080;25.550;2022-11-15T05:21:38;100228.72;;;8.44;86.92
37066;BME280;22981;43.080;25.550;2022-11-15T05:24:06;100226.55;;;8.44;86.92
37066;BME280;22981;43.080;25.550;2022-11-15T05:26:34;100228.37;;;8.43;86.91
37066;BME280;22981;43.080;25.550;2022-11-15T05:29:01;100230.87;;;8.45;86.93
37066;BME280;22981;43.080;25.550;2022-11-15T05:31:29;100231.19;;;8.46;86.93
37066;BME280;22981;43.080;25.550;2022-11-15T05:33:58;100230.16;;;8.47;86.82
37066;BME280;22981;43.080;25.550;2022-11-15T05:36:38;100196.73;;;8.25;86.74
37066;BME280;22981;43.080;25.550;2022-11-15T05:39:07;100232.01;;;8.46;86.75
37066;BME280;22981;43.080;25.550;2022-11-15T05:41:38;100227.18;;;8.46;86.68
37066;BME280;22981;43.080;25.550;2022-11-15T05:44:07;100226.55;;;8.44;86.75
37066;BME280;22981;43.080;25.550;2022-11-15T05:46:38;100234.36;;;8.45;86.79
37066;BME280;22981;43.080;25.550;2022-11-15T05:49:10;100233.34;;;8.46;86.81
37066;BME280;22981;43.080;25.550;2022-11-15T05:51:38;100234.16;;;8.47;86.76
37066;BME280;22981;43.080;25.550;2022-11-15T05:54:06;100232.47;;;8.50;86.77
37066;BME280;22981;43.080;25.550;2022-11-15T05:56:34;100237.44;;;8.53;86.80
37066;BME280;22981;43.080;25.550;2022-11-15T05:59:02;100235.22;;;8.57;86.72
37066;BME280;22981;43.080;25.550;2022-11-15T06:01:30;100232.55;;;8.57;86.59
37066;BME280;22981;43.080;25.550;2022-11-15T06:03:58;100239.91;;;8.55;86.54
37066;BME280;22981;43.080;25.550;2022-11-15T06:06:27;100234.26;;;8.53;86.51
37066;BME280;22981;43.080;25.550;2022-11-15T06:08:54;100239.50;;;8.47;86.51
37066;BME280;22981;43.080;25.550;2022-11-15T06:11:22;100243.05;;;8.43;86.59
37066;BME280;22981;43.080;25.550;2022-11-15T06:13:49;100247.25;;;8.42;86.70
37066;BME280;22981;43.080;25.550;2022-11-15T06:16:17;100243.09;;;8.39;86.81
37066;BME280;22981;43.080;25.550;2022-11-15T06:18:44;100249.45;;;8.38;86.91
37066;BME280;22981;43.080;25.550;2022-11-15T06:21:12;100247.95;;;8.40;87.02
37066;BME280;22981;43.080;25.550;2022-11-15T06:23:40;100239.44;;;8.40;87.07
37066;BME280;22981;43.080;25.550;2022-11-15T06:26:07;100237.39;;;8.42;87.05
37066;BME280;22981;43.080;25.550;2022-11-15T06:28:35;100245.55;;;8.45;87.01
37066;BME280;22981;43.080;25.550;2022-11-15T06:31:04;100244.02;;;8.46;86.98
37066;BME280;22981;43.080;25.550;2022-11-15T06:33:32;100252.33;;;8.47;87.01
37066;BME280;22981;43.080;25.550;2022-11-15T06:36:08;100250.17;;;8.47;87.05
37066;BME280;22981;43.080;25.550;2022-11-15T06:38:36;100252.67;;;8.48;87.04
37066;BME280;22981;43.080;25.550;2022-11-15T06:41:06;100256.99;;;8.49;87.04
37066;BME280;22981;43.080;25.550;2022-11-15T06:43:35;100255.15;;;8.50;87.05
37066;BME280;22981;43.080;25.550;2022-11-15T06:46:04;100249.81;;;8.50;87.04
37066;BME280;22981;43.080;25.550;2022-11-15T06:48:32;100250.01;;;8.48;87.07
37066;BME280;22981;43.080;25.550;2022-11-15T06:51:02;100250.83;;;8.49;87.10
37066;BME280;22981;43.080;25.550;2022-11-15T06:53:30;100246.63;;;8.50;87.12
37066;BME280;22981;43.080;25.550;2022-11-15T06:56:02;100243.96;;;8.50;87.10
37066;BME280;22981;43.080;25.550;2022-11-15T06:58:31;100242.00;;;8.48;87.11
37066;BME280;22981;43.080;25.550;2022-11-15T07:01:03;100248.98;;;8.49;87.11
37066;BME280;22981;43.080;25.550;2022-11-15T07:03:31;100241.30;;;8.50;87.16
37066;BME280;22981;43.080;25.550;2022-11-15T07:05:59;100239.59;;;8.53;87.13
37066;BME280;22981;43.080;25.550;2022-11-15T07:08:28;100244.73;;;8.55;87.07
37066;BME280;22981;43.080;25.550;2022-11-15T07:11:00;100235.70;;;8.56;87.08
37066;BME280;22981;43.080;25.550;2022-11-15T07:13:30;100239.55;;;8.58;87.00
37066;BME280;22981;43.080;25.550;2022-11-15T07:16:05;100232.55;;;8.57;86.94
37066;BME280;22981;43.080;25.550;2022-11-15T07:18:38;100241.95;;;8.52;86.79
37066;BME280;22981;43.080;25.550;2022-11-15T07:21:07;100239.70;;;8.45;86.92
37066;BME280;22981;43.080;25.550;2022-11-15T07:23:37;100232.06;;;8.42;87.10
37066;BME280;22981;43.080;25.550;2022-11-15T07:26:05;100236.38;;;8.43;87.21
37066;BME280;22981;43.080;25.550;2022-11-15T07:28:33;100233.54;;;8.45;87.27
37066;BME280;22981;43.080;25.550;2022-11-15T07:31:05;100231.19;;;8.46;87.24
37066;BME280;22981;43.080;25.550;2022-11-15T07:33:33;100225.34;;;8.46;87.23
37066;BME280;22981;43.080;25.550;2022-11-15T07:36:02;100231.50;;;8.47;87.25
37066;BME280;22981;43.080;25.550;2022-11-15T07:38:30;100226.36;;;8.45;87.08
37066;BME280;22981;43.080;25.550;2022-11-15T07:41:00;100231.75;;;8.41;87.01
37066;BME280;22981;43.080;25.550;2022-11-15T14:36:47;99798.88;;;9.18;83.60
